This is the latest recevied weather packets stored in our database for station/object WK7G. If no packets are shown the sender has not sent any weather packets the latest 10 day(s).
| Time | Temp. | Humidity | Pressure | Rain* | Wind** | Luminosity | Snow |
|---|---|---|---|---|---|---|---|
| 1777868004 | 7.78° C | 47% | 1005.7 hPa | 0 mm | - | 0 W/m² | - |
| 1777867701 | 8.89° C | 44% | 1005.5 hPa | 0 mm | - | 0 W/m² | - |
| 1777867399 | 9.44° C | 43% | 1005.7 hPa | 0 mm | - | 0 W/m² | - |
| 1777867094 | 10° C | 40% | 1005.7 hPa | 0 mm | - | 0 W/m² | - |
| 1777866489 | 9.44° C | 42% | 1005.7 hPa | 0 mm | - | 0 W/m² | - |
| 1777865884 | 9.44° C | 42% | 1005.6 hPa | 0 mm | - | 0 W/m² | - |
| 1777865581 | 9.44° C | 42% | 1005.5 hPa | 0 mm | - | 0 W/m² | - |
| 1777865278 | 10° C | 43% | 1005.5 hPa | 0 mm | - | 0 W/m² | - |
| 1777864975 | 10° C | 43% | 1005.6 hPa | 0 mm | - | 0 W/m² | - |
| 1777847091 | 17.78° C | 28% | 1006.5 hPa | 0 mm | - | 173 W/m² | - |
| 1777846794 | 17.78° C | 28% | 1006.4 hPa | 0 mm | - | 184 W/m² | - |
| 1777844669 | 17.78° C | 33% | 1006.8 hPa | 0 mm | - | 149 W/m² | - |
| 1777842852 | 17.78° C | 27% | 1007.5 hPa | 0 mm | - | 137 W/m² | - |
| 1777842547 | 17.78° C | 28% | 1007.4 hPa | 0 mm | - | 121 W/m² | - |
| 1777841939 | 19.44° C | 27% | 1007.4 hPa | 0 mm | - | 735 W/m² | - |
| 1777840727 | 18.89° C | 31% | 1007.6 hPa | 0 mm | - | 780 W/m² | - |
| 1777840121 | 18.33° C | 28% | 1007.5 hPa | 0 mm | - | 248 W/m² | - |
| 1777839819 | 18.33° C | 27% | 1007.6 hPa | 0 mm | - | 218 W/m² | - |
| 1777839214 | 20° C | 26% | 1008 hPa | 0 mm | - | 823 W/m² | - |
| 1777838912 | 18.89° C | 27% | 1008.1 hPa | 0 mm | - | 839 W/m² | - |
| 1777837090 | 18.33° C | 28% | 1008.3 hPa | 0 mm | - | 911 W/m² | - |
| 1777836483 | 18.89° C | 28% | 1008.3 hPa | 0 mm | - | 918 W/m² | - |
| 1777835572 | 18.89° C | 31% | 1008.7 hPa | 0 mm | - | 886 W/m² | - |
| 1777834663 | 18.33° C | 28% | 1008.5 hPa | 0 mm | - | 931 W/m² | - |
| 1777833750 | 18.33° C | 30% | 1008.9 hPa | 0 mm | - | 923 W/m² | - |
* Rain latest hour (hover to see other rain measurements)
** Current wind speed in m/s (hover to see current wind gust speed)